Time;durP1;ratioP1;P1;durP2;ratioP2;P2;SDS_P1;SDS_P2;PMS_P1;PMS_P2;Temp;Humidity;BMP_temperature;BMP_pressure;BME280_temperature;BME280_humidity;BME280_pressure;Samples;Min_cycle;Max_cycle;Signal;HPM_P1;HPM_P2
2023/09/08 00:02:32;;;;;;;14.40;8.55;;;;;;;21.88;86.17;101580.88;5052224;28;20045;-64
2023/09/08 00:05:20;;;;;;;10.23;7.30;;;;;;;21.85;86.35;101575.19;5050446;28;20049;-64
2023/09/08 00:08:08;;;;;;;13.55;8.35;;;;;;;21.83;86.19;101569.94;5050609;28;20044;-63
2023/09/08 00:10:56;;;;;;;13.88;8.50;;;;;;;21.83;86.34;101571.91;5051288;28;20123;-63
2023/09/08 00:13:44;;;;;;;12.93;8.73;;;;;;;21.83;85.99;101577.47;5064391;28;20155;-64
2023/09/08 00:16:32;;;;;;;11.60;7.40;;;;;;;21.83;86.12;101572.72;5050588;28;20056;-63
2023/09/08 00:19:20;;;;;;;13.27;8.00;;;;;;;21.82;85.94;101576.66;5056260;28;20138;-65
2023/09/08 00:22:09;;;;;;;13.63;8.20;;;;;;;21.78;86.16;101574.84;5070034;28;20098;-63
2023/09/08 00:24:57;;;;;;;16.42;8.23;;;;;;;21.77;86.15;101578.75;5071375;28;20156;-64
2023/09/08 00:27:45;;;;;;;11.40;8.02;;;;;;;21.73;86.59;101575.03;5069861;28;20044;-64
2023/09/08 00:30:33;;;;;;;12.50;7.50;;;;;;;21.73;86.63;101577.78;5055967;28;20100;-64
2023/09/08 00:33:22;;;;;;;13.50;9.02;;;;;;;21.77;86.44;101585.16;5071294;28;20080;-64
2023/09/08 00:36:11;;;;;;;14.57;9.13;;;;;;;21.76;86.13;101583.50;5055742;28;20079;-63
2023/09/08 00:38:59;;;;;;;14.40;9.65;;;;;;;21.67;86.37;101575.19;5066054;28;20045;-64
2023/09/08 00:41:48;;;;;;;14.57;8.82;;;;;;;21.57;86.95;101569.13;5044062;28;20052;-64
2023/09/08 00:44:36;;;;;;;15.82;10.10;;;;;;;21.50;87.54;101572.38;5071329;28;20045;-63
2023/09/08 00:47:24;;;;;;;13.60;9.45;;;;;;;21.45;87.57;101578.06;5071536;28;20048;-63
2023/09/08 00:50:13;;;;;;;14.52;9.68;;;;;;;21.39;87.63;101569.09;5056848;28;20041;-63
2023/09/08 00:53:01;;;;;;;17.42;10.27;;;;;;;21.36;87.43;101564.19;5070281;28;20416;-63
2023/09/08 00:55:49;;;;;;;12.88;8.52;;;;;;;21.32;87.93;101573.47;5056723;28;20133;-62
2023/09/08 00:58:37;;;;;;;12.43;8.55;;;;;;;21.32;87.80;101571.50;5051640;28;20118;-62
2023/09/08 01:01:25;;;;;;;16.40;9.38;;;;;;;21.29;88.14;101572.16;5038757;28;20142;-63
2023/09/08 01:04:13;;;;;;;12.20;8.25;;;;;;;21.31;88.15;101569.88;5069868;28;20048;-63
2023/09/08 01:07:03;;;;;;;14.57;9.25;;;;;;;21.34;88.11;101571.19;5048967;28;20045;-63
2023/09/08 01:09:51;;;;;;;12.05;8.43;;;;;;;21.35;87.96;101565.31;5056290;28;20068;-63
2023/09/08 01:12:39;;;;;;;13.02;9.15;;;;;;;21.33;88.00;101558.44;5054501;28;20458;-63
2023/09/08 01:15:27;;;;;;;15.57;8.80;;;;;;;21.27;88.24;101561.38;5021771;28;20454;-63
2023/09/08 01:18:15;;;;;;;13.75;9.25;;;;;;;21.20;88.84;101566.56;5037345;28;20133;-63
2023/09/08 01:21:15;;;;;;;14.93;8.77;;;;;;;21.17;89.37;101556.16;5053467;28;20258;-63
2023/09/08 01:24:42;;;;;;;13.77;8.27;;;;;;;21.17;89.33;101561.69;5058833;28;20040;-63
2023/09/08 01:27:32;;;;;;;16.55;9.48;;;;;;;21.15;89.00;101565.91;5056963;28;20084;-63
2023/09/08 01:30:22;;;;;;;12.98;8.88;;;;;;;21.11;89.44;101567.69;5042149;28;20408;-63
2023/09/08 01:33:11;;;;;;;13.35;8.65;;;;;;;21.05;89.64;101570.63;5055329;28;20048;-63
2023/09/08 01:35:59;;;;;;;14.70;8.13;;;;;;;21.03;89.89;101563.75;5050405;28;20053;-64
2023/09/08 01:38:47;;;;;;;12.13;8.63;;;;;;;21.04;89.88;101566.19;5051800;28;20565;-64
2023/09/08 01:41:35;;;;;;;16.00;9.35;;;;;;;21.06;89.76;101577.78;5072824;28;20044;-64
2023/09/08 01:44:23;;;;;;;13.52;8.68;;;;;;;21.08;89.39;101569.16;5053881;28;20497;-64
2023/09/08 01:47:11;;;;;;;13.60;9.32;;;;;;;21.05;89.36;101564.25;5054536;28;20041;-63
2023/09/08 01:50:00;;;;;;;12.98;8.93;;;;;;;21.00;89.75;101567.19;5059186;28;20082;-63
2023/09/08 01:52:48;;;;;;;12.00;8.93;;;;;;;20.97;90.06;101563.09;5072879;28;20053;-63
2023/09/08 01:55:36;;;;;;;16.95;10.00;;;;;;;20.98;89.74;101566.69;5059374;28;20079;-63
2023/09/08 01:58:24;;;;;;;12.23;8.57;;;;;;;20.96;90.01;101566.19;5062053;28;20106;-62
2023/09/08 02:01:12;;;;;;;13.07;8.85;;;;;;;20.97;90.00;101565.03;5066590;28;20049;-63
2023/09/08 02:04:01;;;;;;;14.45;9.60;;;;;;;20.95;89.35;101559.81;5064974;28;20193;-64
2023/09/08 02:06:49;;;;;;;11.73;8.85;;;;;;;20.90;89.80;101561.91;5070500;28;20048;-63
2023/09/08 02:09:37;;;;;;;14.10;8.95;;;;;;;20.85;90.18;101565.63;5059950;28;20083;-63
2023/09/08 02:12:25;;;;;;;13.65;9.43;;;;;;;20.85;89.90;101563.72;5059933;28;20131;-62
2023/09/08 02:15:17;;;;;;;13.55;8.55;;;;;;;20.84;90.27;101556.50;5058056;28;20048;-63
2023/09/08 02:18:07;;;;;;;12.07;9.10;;;;;;;20.88;89.79;101558.63;5058958;28;20082;-63
2023/09/08 02:20:55;;;;;;;14.27;9.27;;;;;;;20.83;89.61;101557.66;5064211;28;20128;-63
2023/09/08 02:23:43;;;;;;;12.05;8.90;;;;;;;20.77;90.09;101558.94;5051918;28;20075;-64
2023/09/08 02:26:33;;;;;;;15.23;9.60;;;;;;;20.71;90.44;101551.06;5041191;28;20489;-64
2023/09/08 02:29:22;;;;;;;14.18;9.38;;;;;;;20.66;90.98;101551.22;5048182;28;20049;-63
2023/09/08 02:32:10;;;;;;;13.38;9.30;;;;;;;20.64;90.92;101552.38;5023023;28;20408;-63
2023/09/08 02:34:59;;;;;;;11.75;8.90;;;;;;;20.58;91.15;101556.38;5040027;28;20115;-64
2023/09/08 02:37:47;;;;;;;13.20;9.07;;;;;;;20.58;91.28;101561.13;5051904;28;20412;-63
2023/09/08 02:40:35;;;;;;;15.90;9.38;;;;;;;20.56;91.26;101552.31;5052244;28;20041;-64
2023/09/08 02:43:24;;;;;;;11.95;9.23;;;;;;;20.54;91.04;101549.84;5045631;28;20045;-64
2023/09/08 02:46:13;;;;;;;13.23;9.13;;;;;;;20.50;91.46;101556.34;5045070;28;20045;-63
2023/09/08 02:49:01;;;;;;;14.18;8.98;;;;;;;20.49;91.59;101551.91;5038334;28;20041;-64
2023/09/08 02:51:49;;;;;;;15.02;8.27;;;;;;;20.48;91.78;101551.09;5037939;28;20044;-64
2023/09/08 02:54:37;;;;;;;17.40;8.98;;;;;;;20.50;91.53;101548.84;5051501;28;20049;-63
2023/09/08 02:57:25;;;;;;;15.15;9.32;;;;;;;20.49;91.34;101554.69;5045995;28;20537;-62
2023/09/08 03:00:14;;;;;;;18.25;9.05;;;;;;;20.46;91.66;101553.38;5019061;28;20045;-63
2023/09/08 03:03:02;;;;;;;15.35;8.60;;;;;;;20.46;91.74;101552.56;5043156;28;20512;-63
2023/09/08 03:05:56;;;;;;;13.57;8.50;;;;;;;20.48;91.90;101550.28;5044249;28;20079;-63
2023/09/08 03:08:44;;;;;;;14.05;8.88;;;;;;;20.50;91.56;101548.03;5067746;28;20041;-65
2023/09/08 03:11:32;;;;;;;15.65;9.35;;;;;;;20.47;91.56;101549.47;5054837;28;20056;-64
2023/09/08 03:14:21;;;;;;;16.20;9.57;;;;;;;20.45;91.43;101550.94;5050841;28;20045;-63
2023/09/08 03:17:09;;;;;;;13.93;8.45;;;;;;;20.40;91.60;101549.94;5049471;28;20040;-64
2023/09/08 03:19:57;;;;;;;13.35;9.23;;;;;;;20.33;92.01;101551.50;5051737;28;20061;-63
2023/09/08 03:22:45;;;;;;;15.95;9.18;;;;;;;20.29;92.54;101551.31;5052499;28;20128;-64
2023/09/08 03:25:33;;;;;;;12.00;8.50;;;;;;;20.28;92.34;101552.47;5050348;28;20516;-64
2023/09/08 03:28:21;;;;;;;11.88;8.40;;;;;;;20.25;92.70;101547.53;5050952;28;20040;-63
2023/09/08 03:31:09;;;;;;;14.98;9.45;;;;;;;20.27;92.66;101556.34;5045107;28;20041;-63
2023/09/08 03:33:57;;;;;;;16.77;9.05;;;;;;;20.25;92.61;101547.53;5017908;28;20453;-62
2023/09/08 03:36:46;;;;;;;14.75;8.38;;;;;;;20.21;92.74;101546.56;5049410;28;20056;-64
2023/09/08 03:39:34;;;;;;;17.30;8.43;;;;;;;20.20;92.70;101539.38;5051384;28;20056;-64
2023/09/08 03:42:22;;;;;;;17.00;9.13;;;;;;;20.18;93.06;101544.44;5052465;28;20485;-63
2023/09/08 03:45:11;;;;;;;14.65;8.98;;;;;;;20.17;93.04;101540.00;5048534;28;20412;-64
2023/09/08 03:47:58;;;;;;;15.43;8.88;;;;;;;20.19;93.16;101544.09;5032326;28;20046;-64
2023/09/08 03:50:47;;;;;;;14.48;9.07;;;;;;;20.22;92.61;101537.09;5017460;28;20047;-63
2023/09/08 03:53:35;;;;;;;11.93;8.80;;;;;;;20.21;92.26;101535.50;5032395;28;20052;-64
2023/09/08 03:56:23;;;;;;;13.70;8.88;;;;;;;20.20;92.50;101528.31;5032176;28;20046;-64
2023/09/08 03:59:12;;;;;;;14.48;9.25;;;;;;;20.18;92.62;101536.13;5045045;28;20068;-64
2023/09/08 04:02:01;;;;;;;18.73;9.90;;;;;;;20.18;92.46;101536.94;5049262;28;20083;-63
2023/09/08 04:04:49;;;;;;;13.05;8.50;;;;;;;20.19;92.86;101541.31;5049332;28;20047;-63
2023/09/08 04:07:38;;;;;;;14.55;8.82;;;;;;;20.22;92.65;101537.09;5050050;28;20507;-64
2023/09/08 04:10:26;;;;;;;16.17;9.38;;;;;;;20.21;92.47;101541.84;5050434;28;20135;-62
2023/09/08 04:13:14;;;;;;;13.50;9.10;;;;;;;20.16;92.63;101536.44;5051244;28;20131;-62
2023/09/08 04:16:02;;;;;;;13.63;9.15;;;;;;;20.17;92.96;101531.72;5049889;28;20134;-64
2023/09/08 04:18:50;;;;;;;15.30;9.93;;;;;;;20.19;92.69;101534.97;5043680;28;20465;-63
2023/09/08 04:21:42;;;;;;;17.45;9.70;;;;;;;20.14;92.80;101529.59;5030990;28;20052;-64
2023/09/08 04:24:30;;;;;;;13.98;9.30;;;;;;;20.08;93.30;101522.53;5029116;28;20048;-64
2023/09/08 04:27:18;;;;;;;15.80;9.55;;;;;;;20.05;93.56;101528.69;5044469;28;20184;-64
2023/09/08 04:30:06;;;;;;;15.40;10.35;;;;;;;20.03;93.63;101519.91;5050783;28;20045;-64
2023/09/08 04:32:55;;;;;;;12.70;9.43;;;;;;;19.97;93.76;101524.75;5050950;28;20048;-63
2023/09/08 04:35:44;;;;;;;14.73;9.73;;;;;;;19.89;94.30;101529.09;5039933;28;20120;-64
2023/09/08 04:38:32;;;;;;;21.13;9.82;;;;;;;19.88;94.51;101521.91;5049663;28;20496;-62
2023/09/08 04:41:20;;;;;;;14.00;8.70;;;;;;;19.89;94.84;101520.78;5057312;28;20048;-63
2023/09/08 04:44:08;;;;;;;15.25;8.85;;;;;;;19.95;94.60;101519.53;5050048;28;20041;-63
2023/09/08 04:46:56;;;;;;;17.58;9.57;;;;;;;19.97;94.13;101530.28;5045305;28;20056;-64
2023/09/08 04:49:45;;;;;;;14.75;9.05;;;;;;;19.96;94.25;101528.63;5049265;28;20060;-64
2023/09/08 04:52:33;;;;;;;13.70;9.07;;;;;;;19.94;94.27;101523.44;5049385;28;20496;-64
2023/09/08 04:55:23;;;;;;;16.80;10.25;;;;;;;19.91;94.39;101532.34;5018768;28;20073;-64
2023/09/08 04:58:11;;;;;;;18.52;10.18;;;;;;;19.89;94.61;101529.09;5032310;28;20451;-64
2023/09/08 05:00:59;;;;;;;18.45;10.00;;;;;;;19.86;94.52;101526.94;5030695;28;20493;-64
2023/09/08 05:03:47;;;;;;;16.25;10.48;;;;;;;19.83;95.03;101535.06;5030758;28;20084;-64
2023/09/08 05:06:36;;;;;;;15.10;8.95;;;;;;;19.82;95.08;101534.25;5036498;28;20635;-62
2023/09/08 05:09:24;;;;;;;14.30;9.18;;;;;;;19.84;95.35;101526.41;5032078;28;20057;-64
2023/09/08 05:12:13;;;;;;;18.75;10.20;;;;;;;19.79;95.11;101535.69;5035377;28;20354;-63
2023/09/08 05:15:06;;;;;;;14.98;9.88;;;;;;;19.78;95.76;101533.22;5022979;28;20409;-62
2023/09/08 05:18:02;;;;;;;13.32;9.13;;;;;;;19.77;95.92;101539.88;5041887;28;20053;-64
2023/09/08 05:20:50;;;;;;;15.20;10.23;;;;;;;19.78;96.04;101536.00;5054337;28;20057;-64
2023/09/08 05:23:38;;;;;;;15.05;9.48;;;;;;;19.83;96.00;101540.59;5054475;28;20057;-63
2023/09/08 05:26:26;;;;;;;15.80;10.75;;;;;;;19.83;95.51;101540.59;5047751;28;20050;-63
2023/09/08 05:29:14;;;;;;;15.25;8.27;;;;;;;19.82;95.96;101542.53;5037061;28;20045;-64
2023/09/08 05:32:03;;;;;;;17.63;10.35;;;;;;;19.87;95.85;101539.66;5037874;28;20044;-63
2023/09/08 05:34:51;;;;;;;20.20;9.30;;;;;;;19.92;95.93;101534.00;5021007;28;20045;-65
2023/09/08 05:37:39;;;;;;;18.35;11.52;;;;;;;19.93;95.10;101538.38;5040345;28;20109;-64
2023/09/08 05:40:28;;;;;;;14.30;9.68;;;;;;;19.88;95.36;101535.75;5054870;28;20045;-63
2023/09/08 05:43:16;;;;;;;17.58;10.60;;;;;;;19.86;95.65;101539.94;5038818;28;20211;-64
2023/09/08 05:46:05;;;;;;;15.30;10.60;;;;;;;19.83;95.86;101541.41;5032520;28;20516;-62
2023/09/08 05:48:53;;;;;;;17.48;10.93;;;;;;;19.82;95.88;101541.69;5036017;28;20042;-63
2023/09/08 05:51:41;;;;;;;18.08;9.77;;;;;;;19.84;96.00;101547.72;5036214;28;20049;-62
2023/09/08 05:54:30;;;;;;;18.38;10.43;;;;;;;19.87;96.02;101549.91;5037585;28;20056;-64
2023/09/08 05:57:19;;;;;;;13.45;9.52;;;;;;;19.91;95.80;101554.47;5045685;28;20507;-63
2023/09/08 06:00:08;;;;;;;16.13;10.45;;;;;;;19.97;95.42;101547.69;5034873;28;20049;-64
2023/09/08 06:03:00;;;;;;;15.00;9.10;;;;;;;20.06;94.71;101558.00;5032886;28;20092;-64
2023/09/08 06:05:48;;;;;;;18.58;11.38;;;;;;;20.09;94.28;101557.38;5032091;28;20172;-65
2023/09/08 06:08:36;;;;;;;16.92;10.10;;;;;;;20.12;94.04;101556.75;5043923;28;20041;-63
2023/09/08 06:11:25;;;;;;;16.52;9.70;;;;;;;20.15;93.97;101556.09;5034176;28;20095;-63
2023/09/08 06:14:12;;;;;;;15.82;10.35;;;;;;;20.18;94.07;101552.72;5044194;28;20049;-64
2023/09/08 06:17:05;;;;;;;15.52;10.32;;;;;;;20.21;93.63;101557.63;5037399;28;20041;-64
2023/09/08 06:19:53;;;;;;;15.93;10.60;;;;;;;20.22;93.57;101559.25;5060743;28;20052;-63
2023/09/08 06:22:41;;;;;;;14.85;10.70;;;;;;;20.26;93.61;101559.44;5059668;28;20052;-62
2023/09/08 06:25:31;;;;;;;13.35;9.77;;;;;;;20.26;93.28;101560.25;5039512;28;20086;-64
2023/09/08 06:28:19;;;;;;;16.17;11.20;;;;;;;20.28;93.53;101558.00;5062579;28;20033;-63
2023/09/08 06:31:08;;;;;;;18.05;10.88;;;;;;;20.29;93.62;101562.38;5038714;28;20178;-65
2023/09/08 06:33:58;;;;;;;16.88;10.90;;;;;;;20.31;93.46;101556.53;5039190;28;20045;-63
2023/09/08 06:36:46;;;;;;;18.52;10.65;;;;;;;20.32;93.50;101558.16;5039357;28;20469;-63
2023/09/08 06:39:34;;;;;;;17.70;11.13;;;;;;;20.34;93.37;101559.47;5039559;28;20400;-63
2023/09/08 06:42:23;;;;;;;17.30;12.30;;;;;;;20.33;93.26;101560.63;5044175;28;20049;-64
2023/09/08 06:45:18;;;;;;;18.92;12.73;;;;;;;20.34;93.54;101564.22;5039555;28;20041;-63
2023/09/08 06:48:07;;;;;;;15.00;10.93;;;;;;;20.32;93.22;101572.81;5039719;28;20057;-63
2023/09/08 06:50:56;;;;;;;16.55;11.07;;;;;;;20.32;93.58;101563.69;5043470;28;20045;-63
2023/09/08 06:53:57;;;;;;;19.10;11.68;;;;;;;20.33;93.49;101570.88;5044926;28;20047;-64
2023/09/08 06:56:50;;;;;;;18.67;10.82;;;;;;;20.34;93.73;101575.28;5059514;28;20070;-64
2023/09/08 06:59:38;;;;;;;19.55;11.55;;;;;;;20.37;93.85;101575.47;5039590;28;20408;-64
2023/09/08 07:02:27;;;;;;;19.60;11.75;;;;;;;20.38;93.82;101577.09;5054482;28;20115;-65
2023/09/08 07:05:16;;;;;;;15.50;11.02;;;;;;;20.41;94.16;101581.19;5049379;28;21868;-65
2023/09/08 07:08:06;;;;;;;18.63;12.85;;;;;;;20.45;94.37;101581.38;5044878;28;20051;-63
2023/09/08 07:10:54;;;;;;;21.13;12.73;;;;;;;20.50;94.33;101592.31;5045644;28;20052;-63
2023/09/08 07:13:43;;;;;;;18.20;12.52;;;;;;;20.52;94.46;101584.53;5050771;28;20116;-63
2023/09/08 07:16:31;;;;;;;19.20;13.15;;;;;;;20.55;94.56;101583.88;5053832;28;20405;-63
2023/09/08 07:19:19;;;;;;;15.98;11.57;;;;;;;20.58;94.64;101583.28;5037765;28;20045;-64
2023/09/08 07:22:07;;;;;;;18.45;13.18;;;;;;;20.59;94.88;101577.44;5038351;28;20440;-64
2023/09/08 07:24:55;;;;;;;20.58;13.40;;;;;;;20.60;95.29;101576.28;5038332;28;20052;-64
2023/09/08 07:27:44;;;;;;;15.93;12.35;;;;;;;20.63;95.69;101585.91;5037810;28;20203;-64
2023/09/08 07:30:33;;;;;;;19.98;12.20;;;;;;;20.68;95.40;101577.44;5038532;28;20136;-63
2023/09/08 07:33:22;;;;;;;19.23;14.30;;;;;;;20.71;95.55;101585.16;5042205;28;20523;-63
2023/09/08 07:36:11;;;;;;;22.45;14.80;;;;;;;20.72;96.20;101578.47;5057942;28;20051;-63
2023/09/08 07:39:01;;;;;;;19.92;14.38;;;;;;;20.75;96.00;101585.31;5059169;28;20045;-64
2023/09/08 07:41:49;;;;;;;18.63;14.20;;;;;;;20.78;96.35;101577.19;5052556;28;20049;-63
2023/09/08 07:44:37;;;;;;;21.15;14.77;;;;;;;20.82;96.47;101572.63;5066479;28;20060;-64
2023/09/08 07:47:26;;;;;;;18.58;12.52;;;;;;;20.86;96.12;101572.81;5058192;28;20047;-65
2023/09/08 07:50:22;;;;;;;21.20;14.13;;;;;;;20.91;96.21;101569.91;5071292;28;20041;-63
2023/09/08 07:53:10;;;;;;;17.40;13.02;;;;;;;20.94;96.49;101562.91;5051410;28;20045;-63
2023/09/08 07:55:58;;;;;;;19.75;14.38;;;;;;;20.97;96.72;101573.34;5052986;28;20562;-64
2023/09/08 07:58:46;;;;;;;19.45;13.55;;;;;;;21.00;97.42;101564.41;5051717;28;20056;-66
2023/09/08 08:01:34;;;;;;;16.55;11.68;;;;;;;21.04;97.17;101568.97;5049423;28;20049;-66
2023/09/08 08:04:22;;;;;;;19.40;12.57;;;;;;;21.09;97.55;101570.78;5056452;28;20044;-65
2023/09/08 08:07:10;;;;;;;17.33;12.75;;;;;;;21.12;97.53;101575.69;5071940;28;20123;-64
2023/09/08 08:09:58;;;;;;;14.82;10.30;;;;;;;21.15;97.14;101563.97;5072198;28;20514;-64
2023/09/08 08:12:47;;;;;;;17.27;12.00;;;;;;;21.20;97.21;101561.03;5068694;28;20408;-64
2023/09/08 08:15:39;;;;;;;18.17;12.25;;;;;;;21.25;97.29;101560.88;5056963;28;20132;-64
2023/09/08 08:18:27;;;;;;;15.88;11.95;;;;;;;21.27;97.62;101572.47;5072157;28;20094;-65
2023/09/08 08:21:15;;;;;;;17.40;13.02;;;;;;;21.32;98.26;101568.72;5021581;28;20477;-63
2023/09/08 08:24:04;;;;;;;20.17;13.20;;;;;;;21.38;98.47;101567.44;5046813;28;20481;-64
2023/09/08 08:26:53;;;;;;;17.75;11.85;;;;;;;21.46;97.90;101571.41;5053164;28;20131;-63
2023/09/08 08:29:41;;;;;;;17.77;13.48;;;;;;;21.49;97.78;101571.56;5056379;28;20041;-64
2023/09/08 08:32:29;;;;;;;15.88;12.00;;;;;;;21.51;97.26;101571.25;5055244;28;20123;-64
2023/09/08 08:35:17;;;;;;;18.02;11.63;;;;;;;21.55;97.32;101572.25;5040940;28;20049;-63
2023/09/08 08:38:05;;;;;;;15.73;11.80;;;;;;;21.63;97.09;101573.38;5054396;28;20045;-63
2023/09/08 08:40:53;;;;;;;20.55;11.88;;;;;;;21.70;96.17;101580.06;5066954;28;20398;-62
2023/09/08 08:43:44;;;;;;;15.02;11.20;;;;;;;21.73;95.75;101573.06;5042691;28;20076;-63
2023/09/08 08:46:34;;;;;;;11.73;8.25;;;;;;;21.76;95.83;101579.91;5056344;28;20045;-64
2023/09/08 08:49:23;;;;;;;10.85;8.40;;;;;;;21.78;95.78;101580.41;5040716;28;20162;-64
2023/09/08 08:52:12;;;;;;;14.43;11.13;;;;;;;21.81;96.68;101576.97;5049163;28;20139;-63
2023/09/08 08:55:01;;;;;;;15.00;10.60;;;;;;;21.88;95.79;101580.88;5046266;28;20124;-66
2023/09/08 08:57:49;;;;;;;15.50;10.68;;;;;;;21.95;95.30;101574.84;5035537;28;20140;-64
2023/09/08 09:00:37;;;;;;;10.27;7.50;;;;;;;21.98;95.30;101576.97;5036659;28;20064;-64
2023/09/08 09:03:28;;;;;;;14.38;10.50;;;;;;;22.00;96.50;101571.91;5051875;28;20562;-63
2023/09/08 09:06:17;;;;;;;15.00;9.50;;;;;;;22.04;96.47;101570.13;5052885;28;20037;-65
2023/09/08 09:09:05;;;;;;;18.38;10.50;;;;;;;22.08;97.27;101571.09;5067263;28;20053;-64
2023/09/08 09:11:53;;;;;;;14.30;9.32;;;;;;;22.15;96.61;101572.53;5054510;28;20460;-63
2023/09/08 09:14:47;;;;;;;9.98;7.28;;;;;;;22.19;95.69;101567.97;5065600;28;20048;-63
2023/09/08 09:17:36;;;;;;;15.18;10.60;;;;;;;22.20;96.54;101569.59;5035199;28;20053;-64
2023/09/08 09:20:24;;;;;;;13.25;9.55;;;;;;;22.22;96.61;101568.16;5035073;28;20049;-63
2023/09/08 09:23:13;;;;;;;13.43;8.93;;;;;;;22.28;96.95;101577.16;5034481;28;20102;-64
2023/09/08 09:26:05;;;;;;;14.55;8.77;;;;;;;22.33;96.84;101571.41;5050535;28;20064;-64
2023/09/08 09:28:54;;;;;;;15.57;10.38;;;;;;;22.38;97.65;101570.44;5065911;28;20092;-63
2023/09/08 09:32:08;;;;;;;17.15;10.55;;;;;;;22.44;97.46;101572.72;5050943;28;20390;-63
2023/09/08 09:34:57;;;;;;;18.70;9.65;;;;;;;22.52;97.70;101571.84;5066197;28;20452;-64
2023/09/08 09:37:48;;;;;;;13.10;9.68;;;;;;;22.55;97.24;101570.38;5048205;28;20502;-62
2023/09/08 09:40:36;;;;;;;14.68;11.50;;;;;;;22.60;97.81;101570.19;5052133;28;20080;-63
2023/09/08 09:43:24;;;;;;;15.35;10.95;;;;;;;22.65;97.82;101566.41;5034582;28;20056;-64
2023/09/08 09:46:13;;;;;;;16.52;11.02;;;;;;;22.69;97.82;101575.72;5051634;28;20471;-64
2023/09/08 09:49:01;;;;;;;17.10;12.32;;;;;;;22.78;98.93;101568.19;5033958;28;20042;-64
2023/09/08 09:51:53;;;;;;;18.00;11.82;;;;;;;22.86;98.21;101570.09;5034182;28;20042;-64
2023/09/08 09:54:44;;;;;;;19.75;12.93;;;;;;;22.92;98.26;101566.00;5035372;28;20493;-63
2023/09/08 09:57:32;;;;;;;19.33;12.18;;;;;;;23.03;98.09;101574.00;5033370;28;20128;-64
2023/09/08 10:00:20;;;;;;;15.00;10.48;;;;;;;23.11;97.60;101578.69;5043800;28;20079;-65
2023/09/08 10:03:09;;;;;;;17.20;10.38;;;;;;;23.16;96.52;101570.13;5033740;28;20521;-62
2023/09/08 10:05:58;;;;;;;15.25;9.02;;;;;;;23.17;95.75;101574.56;5033829;28;20080;-64
2023/09/08 10:08:47;;;;;;;12.88;8.77;;;;;;;23.16;95.07;101573.75;5027948;28;20052;-65
2023/09/08 10:11:50;;;;;;;21.70;9.68;;;;;;;23.15;95.39;101565.75;5044121;28;20037;-63
2023/09/08 10:14:41;;;;;;;19.70;10.40;;;;;;;23.16;96.25;101562.63;5067004;28;20049;-65
2023/09/08 10:17:31;;;;;;;10.65;7.85;;;;;;;23.21;95.09;101558.84;5038828;28;20322;-64
2023/09/08 10:20:22;;;;;;;13.48;8.45;;;;;;;23.22;94.07;101560.47;5050669;28;20103;-65
2023/09/08 10:23:19;;;;;;;21.30;9.52;;;;;;;23.25;94.41;101565.34;5065794;28;20056;-65
2023/09/08 10:26:11;;;;;;;15.98;9.48;;;;;;;23.35;95.18;101558.59;5032744;28;20080;-65
2023/09/08 10:28:59;;;;;;;15.60;9.30;;;;;;;23.45;93.49;101552.66;5064772;28;20488;-65
2023/09/08 10:31:47;;;;;;;13.75;9.60;;;;;;;23.54;93.74;101556.16;5051624;28;20049;-65
2023/09/08 10:34:36;;;;;;;16.60;9.93;;;;;;;23.57;93.43;101552.72;5065051;28;20052;-65
2023/09/08 10:37:29;;;;;;;12.90;9.75;;;;;;;23.56;93.65;101558.59;5049881;28;20079;-65
2023/09/08 10:40:26;;;;;;;13.00;8.68;;;;;;;23.59;93.96;101552.34;5059258;28;20557;-64
2023/09/08 10:43:14;;;;;;;12.70;9.55;;;;;;;23.68;94.07;101561.47;5033870;28;20093;-65
2023/09/08 10:46:09;;;;;;;24.58;14.50;;;;;;;23.72;93.70;101551.28;5041166;28;20077;-65
2023/09/08 10:49:06;;;;;;;16.35;11.57;;;;;;;23.75;94.04;101555.38;5043706;28;20045;-65
2023/09/08 10:52:09;;;;;;;18.20;10.23;;;;;;;23.74;93.93;101554.56;5051493;28;20048;-65
2023/09/08 10:54:58;;;;;;;17.95;9.82;;;;;;;23.84;93.85;101552.53;5053018;28;20505;-65
2023/09/08 10:57:46;;;;;;;24.00;13.63;;;;;;;23.95;93.94;101545.38;5050699;28;20045;-65
2023/09/08 11:00:48;;;;;;;28.48;15.68;;;;;;;24.02;93.54;101554.00;5043076;28;20147;-64
2023/09/08 11:03:39;;;;;;;20.30;12.48;;;;;;;24.09;93.81;101548.69;5041635;28;20041;-65
2023/09/08 11:06:30;;;;;;;31.30;18.60;;;;;;;24.11;93.92;101543.59;5051731;28;20053;-63
2023/09/08 11:09:20;;;;;;;26.73;16.25;;;;;;;24.11;94.59;101551.13;5050692;28;20101;-65
2023/09/08 11:12:09;;;;;;;33.58;19.92;;;;;;;24.12;93.20;101542.41;5045026;28;20175;-64
2023/09/08 11:14:57;;;;;;;26.52;16.25;;;;;;;24.15;93.61;101541.75;5042111;28;20037;-64
2023/09/08 11:17:50;;;;;;;17.25;9.73;;;;;;;24.23;94.41;101540.84;5038801;28;20084;-65
2023/09/08 11:20:38;;;;;;;38.08;27.88;;;;;;;24.31;95.02;101538.31;5052256;28;20178;-64
2023/09/08 11:23:28;;;;;;;18.13;11.63;;;;;;;24.47;94.87;101544.06;5053793;28;20045;-64
2023/09/08 11:26:16;;;;;;;26.95;16.13;;;;;;;24.50;93.71;101543.38;5039581;28;20045;-64
2023/09/08 11:29:05;;;;;;;22.92;11.00;;;;;;;24.54;93.58;101547.91;5041585;28;20443;-63
2023/09/08 11:31:54;;;;;;;19.95;13.02;;;;;;;24.54;93.04;101550.69;5044053;28;20074;-64
2023/09/08 11:34:42;;;;;;;18.50;8.77;;;;;;;24.63;92.50;101550.59;5079850;28;20053;-65
2023/09/08 11:37:31;;;;;;;13.85;8.20;;;;;;;24.71;91.14;101543.28;5041431;28;20045;-65
2023/09/08 11:40:21;;;;;;;18.52;8.55;;;;;;;24.70;89.92;101545.25;5060134;28;20547;-64
2023/09/08 11:43:09;;;;;;;13.68;7.30;;;;;;;24.73;89.85;101540.97;5057078;28;20048;-65
2023/09/08 11:45:57;;;;;;;13.02;7.20;;;;;;;24.79;87.52;101539.56;5054301;28;20043;-64
2023/09/08 11:48:46;;;;;;;10.27;7.22;;;;;;;24.91;85.95;101542.38;5037756;28;20107;-65
2023/09/08 11:51:34;;;;;;;11.98;6.78;;;;;;;24.95;85.55;101540.50;5048453;28;20068;-65
2023/09/08 11:54:22;;;;;;;18.67;10.23;;;;;;;24.90;86.87;101546.31;5051485;28;20045;-65
2023/09/08 11:57:11;;;;;;;18.63;11.68;;;;;;;24.90;87.36;101537.16;5023868;28;20049;-64
2023/09/08 12:00:01;;;;;;;17.13;10.32;;;;;;;24.90;86.72;101545.53;5023537;28;20053;-64
2023/09/08 12:02:51;;;;;;;25.13;15.23;;;;;;;24.84;87.27;101534.56;5052167;28;20505;-64
2023/09/08 12:05:40;;;;;;;29.73;15.45;;;;;;;24.84;86.65;101539.34;5010797;28;20048;-65
2023/09/08 12:08:29;;;;;;;22.63;13.57;;;;;;;24.89;86.76;101536.31;5037609;28;20057;-65
2023/09/08 12:11:17;;;;;;;16.08;9.90;;;;;;;24.95;87.47;101540.50;5052614;28;20087;-65
2023/09/08 12:14:10;;;;;;;13.57;8.07;;;;;;;25.03;86.46;101536.78;5051963;28;20087;-65
2023/09/08 12:17:08;;;;;;;10.70;6.75;;;;;;;25.15;86.48;101533.16;5070373;28;20052;-64
2023/09/08 12:19:56;;;;;;;25.30;13.27;;;;;;;25.22;85.33;101536.22;5070413;28;20059;-64
2023/09/08 12:22:50;;;;;;;19.60;11.98;;;;;;;25.22;84.51;101535.41;5060483;28;20083;-65
2023/09/08 12:25:49;;;;;;;14.40;7.53;;;;;;;25.30;84.23;101534.44;5024114;28;20049;-65
2023/09/08 12:28:37;;;;;;;37.58;20.52;;;;;;;25.25;83.39;101531.91;5049815;28;20048;-64
2023/09/08 12:31:25;;;;;;;23.95;13.38;;;;;;;25.26;81.80;101533.56;5057613;28;20045;-65
2023/09/08 12:34:14;;;;;;;27.77;14.57;;;;;;;25.24;82.53;101530.28;5043926;28;20041;-64
2023/09/08 12:37:02;;;;;;;21.13;12.20;;;;;;;25.25;82.41;101534.69;5071267;28;20048;-64
2023/09/08 12:39:50;;;;;;;15.35;8.60;;;;;;;25.31;82.37;101527.72;5054572;28;20053;-64
2023/09/08 12:42:38;;;;;;;14.13;8.70;;;;;;;25.33;82.49;101519.81;5051606;28;20045;-64
2023/09/08 12:45:35;;;;;;;21.02;12.88;;;;;;;25.33;82.66;101524.56;5049692;28;20048;-64
2023/09/08 12:48:24;;;;;;;11.45;6.97;;;;;;;25.34;83.35;101518.66;5051465;28;20516;-64
2023/09/08 12:51:12;;;;;;;10.15;6.70;;;;;;;25.43;82.70;101519.31;5051617;28;20191;-65
2023/09/08 12:54:00;;;;;;;16.23;9.25;;;;;;;25.49;81.72;101520.69;5051805;28;20052;-63
2023/09/08 12:56:48;;;;;;;10.57;6.80;;;;;;;25.54;81.92;101513.25;5037110;28;20045;-64